Latest Coastal Weather Observations for South Johnstone

IDQ60701

Issued at 4:21 pm EST Monday 23 October 2017 (issued every 10 minutes, with the page automatically refreshed every 10 minutes)

About coastal observations | Map of coastal stations | Coastal observations for QLD | Marine services | Other Formats
Station Details ID: 032037 Name: SOUTH JOHNSTONE EXP STN Lat: -17.61 Lon: 146.00 Height: 18.3 m
Data from the previous 72 hours. | See also: Recent months at South Johnstone
Date/Time
EST
Temp
°C
Wind Pressure Rain since
9am
mm
Weather Cloud Vis
km
Sea
Height
m
Swell
Dir  Spd
kts
Gust
kts
hPa Trend Height
m
Period
s
Dir
23/04:00pm 27.4 ENE 6 11 1011.2 - 0.2 - - - - - - -
23/03:30pm 27.8 ENE 7 11 1011.2 - 0.2 - - - - - - -
23/03:00pm 28.5 E 7 10 1011.0 - 0.2 - - - - - - -
23/02:30pm 28.7 E 6 10 1011.2 - 0.2 - - - - - - -
23/02:00pm 28.8 E 7 12 1011.5 - 0.2 - - - - - - -
23/01:30pm 28.8 ESE 7 10 1011.8 - 0.2 - - - - - - -
23/01:00pm 28.9 E 7 12 1012.0 - 0.2 - - - - - - -
23/12:30pm 28.7 NE 8 11 1012.4 - 0.2 - - - - - - -
23/12:00pm 29.3 E 6 10 1012.7 - 0.2 - - - - - - -
23/11:30am 28.6 NE 3 7 1013.2 - 0.2 - - - - - - -
23/11:00am 28.6 ESE 2 5 1013.5 - 0.2 - - - - - - -
23/10:30am 28.0 E 4 8 1013.7 - 0.2 - - - - - - -
23/10:00am 27.8 S 2 5 1014.0 - 0.2 - - - - - - -
23/09:30am 26.7 S 2 4 1014.3 - 0.2 - - - - - - -
23/09:00am 25.7 CALM 0 0 1014.2 - 1.8 - - - - - - -
23/08:30am 24.4 CALM 0 0 1014.3 - 1.8 - - - - - - -
23/08:00am 23.2 CALM 0 0 1014.1 - 1.8 - - - - - - -
23/07:30am 21.4 CALM 0 0 1013.8 - 1.8 - - - - - - -
23/07:00am 20.1 CALM 0 0 1013.3 - 1.8 - - - - - - -
23/06:30am 19.1 CALM 0 0 1012.9 - 1.8 - - - - - - -
23/06:00am 18.6 CALM 0 0 1012.5 - 1.8 - - - - - - -
23/05:30am 18.7 CALM 0 0 1012.4 - 1.8 - - - - - - -
23/05:00am 19.0 CALM 0 0 1012.2 - 1.8 - - - - - - -
23/04:30am 19.1 CALM 0 0 1012.2 - 1.8 - - - - - - -
23/04:00am 19.1 CALM 0 0 1011.9 - 1.8 - - - - - - -
23/03:30am 19.4 W 2 6 1011.5 - 1.8 - - - - - - -
23/03:00am 19.5 W 2 5 1011.3 - 1.8 - - - - - - -
23/02:30am 19.7 W 1 4 1011.6 - 1.8 - - - - - - -
23/02:00am 19.8 CALM 0 0 1011.9 - 1.8 - - - - - - -
23/01:30am 20.0 CALM 0 0 1012.2 - 1.8 - - - - - - -
23/01:00am 20.2 CALM 0 2 1012.2 - 1.8 - - - - - - -
23/12:30am 20.5 CALM 0 1 1012.2 - 1.8 - - - - - - -
23/12:00am 20.8 CALM 0 3 1012.2 - 1.8 - - - - - - -
 
Date/Time
EST
Temp
°C
Wind Pressure Rain since
9am
mm
Weather Cloud Vis
km
Sea
Height
m
Swell
Dir  Spd
kts
Gust
kts
hPa Trend Height
m
Period
s
Dir
22/11:30pm 20.9 WSW 1 6 1012.4 - 1.8 - - - - - - -
22/11:00pm 20.9 WSW 6 8 1012.6 - 1.8 - - - - - - -
22/10:30pm 21.3 WSW 5 6 1012.9 - 1.8 - - - - - - -
22/10:00pm 21.8 WNW 1 3 1012.9 - 1.8 - - - - - - -
22/09:30pm 22.2 WSW 1 4 1012.8 - 1.8 - - - - - - -
22/09:00pm 22.3 CALM 0 0 1012.4 - 1.8 - - - - - - -
22/08:30pm 22.5 CALM 0 0 1012.3 - 1.8 - - - - - - -
22/08:00pm 22.8 CALM 0 0 1012.2 - 1.8 - - - - - - -
22/07:30pm 22.9 CALM 0 0 1011.9 - 1.8 - - - - - - -
22/07:00pm 23.1 CALM 0 0 1011.4 - 1.8 - - - - - - -
22/06:30pm 23.5 CALM 0 0 1011.1 - 1.8 - - - - - - -
22/06:00pm 24.0 CALM 0 0 1010.8 - 1.8 - - - - - - -
22/05:30pm 24.4 CALM 0 4 1010.6 - 1.8 - - - - - - -
22/05:00pm 24.5 ESE 3 5 1010.2 - 1.8 - - - - - - -
22/04:30pm 24.4 S 4 6 1010.1 - 1.8 - - - - - - -
22/04:00pm 24.5 ESE 5 8 1010.2 - 1.8 - - - - - - -
22/03:30pm 24.2 ESE 5 9 1010.3 - 1.8 - - - - - - -
22/03:00pm 24.7 ESE 7 10 1010.2 - 1.8 - - - - - - -
22/02:30pm 25.0 SE 7 12 1010.2 - 1.8 - - - - - - -
22/02:00pm 25.1 E 6 11 1010.2 - 1.8 - - - - - - -
22/01:30pm 25.1 E 6 10 1010.4 - 1.8 - - - - - - -
22/01:00pm 24.7 E 6 10 1010.8 - 1.8 - - - - - - -
22/12:30pm 24.3 NE 4 6 1011.3 - 1.8 - - - - - - -
22/12:00pm 23.5 E 4 7 1011.9 - 1.4 - - - - - - -
22/11:30am 23.4 SSE 6 10 1012.5 - 0.6 - - - - - - -
22/11:00am 23.5 SSE 5 10 1012.9 - 0.4 - - - - - - -
22/10:30am 24.9 SSE 4 7 1012.9 - 0.0 - - - - - - -
22/10:00am 24.7 SSE 5 9 1013.1 - 0.0 - - - - - - -
22/09:30am 23.6 SE 5 10 1013.3 - 0.0 - - - - - - -
22/09:00am 22.7 SE 2 4 1013.2 - 29.8 - - - - - - -
22/08:30am 22.0 CALM 0 0 1013.2 - 29.8 - - - - - - -
22/08:00am 21.3 CALM 0 2 1013.1 - 29.6 - - - - - - -
22/07:30am 21.0 WSW 3 5 1012.9 - 29.4 - - - - - - -
22/07:00am 20.9 WSW 1 3 1012.5 - 28.0 - - - - - - -
22/06:30am 20.7 WSW 2 4 1012.1 - 26.6 - - - - - - -
22/06:00am 20.5 SW 6 7 1011.8 - 25.2 - - - - - - -
22/05:30am 20.6 SW 4 5 1011.6 - 23.6 - - - - - - -
22/05:00am 20.7 SW 4 5 1011.3 - 22.8 - - - - - - -
22/04:30am 20.9 WSW 2 6 1011.1 - 22.0 - - - - - - -
22/04:00am 20.9 CALM 0 2 1011.1 - 20.6 - - - - - - -
22/03:30am 21.2 CALM 0 0 1011.0 - 19.4 - - - - - - -
22/03:00am 21.0 CALM 0 0 1010.8 - 18.4 - - - - - - -
22/02:30am 21.0 CALM 0 0 1011.1 - 18.0 - - - - - - -
22/02:00am 21.0 CALM 0 0 1011.4 - 17.6 - - - - - - -
22/01:30am 21.0 CALM 0 0 1011.8 - 16.6 - - - - - - -
22/01:00am 21.0 WSW 1 4 1012.1 - 15.2 - - - - - - -
22/12:30am 21.0 SW 3 6 1012.4 - 11.8 - - - - - - -
22/12:00am 21.2 CALM 0 0 1012.6 - 9.8 - - - - - - -
 
Date/Time
EST
Temp
°C
Wind Pressure Rain since
9am
mm
Weather Cloud Vis
km
Sea
Height
m
Swell
Dir  Spd
kts
Gust
kts
hPa Trend Height
m
Period
s
Dir
21/11:30pm 21.1 CALM 0 0 1012.9 - 8.6 - - - - - - -
21/11:00pm 21.7 CALM 0 0 1013.1 - 4.2 - - - - - - -
21/10:30pm 22.4 SE 5 8 1013.3 - 1.2 - - - - - - -
21/10:00pm 22.7 CALM 0 0 1013.1 - 0.4 - - - - - - -
21/09:30pm 22.7 CALM 0 0 1013.0 - 0.2 - - - - - - -
21/09:00pm 22.9 CALM 0 0 1012.7 - 0.2 - - - - - - -
21/08:30pm 23.1 CALM 0 0 1012.6 - 0.2 - - - - - - -
21/08:00pm 23.2 CALM 0 0 1012.6 - 0.2 - - - - - - -
21/07:30pm 23.4 CALM 0 0 1012.5 - 0.2 - - - - - - -
21/07:00pm 23.7 CALM 0 0 1012.1 - 0.2 - - - - - - -
21/06:30pm 24.1 CALM 0 0 1011.9 - 0.2 - - - - - - -
21/06:00pm 24.2 CALM 0 0 1011.4 - 0.0 - - - - - - -
21/05:30pm 24.9 E 3 5 1011.2 - 0.0 - - - - - - -
21/05:00pm 25.1 E 4 5 1011.1 - 0.0 - - - - - - -
21/04:30pm 25.4 E 3 6 1011.0 - 0.0 - - - - - - -
21/04:00pm 25.4 ESE 3 5 1011.0 - 0.0 - - - - - - -
21/03:30pm 25.6 CALM 0 3 1011.1 - 0.0 - - - - - - -
21/03:00pm 25.9 ENE 3 5 1011.2 - 0.0 - - - - - - -
21/02:30pm 25.5 NE 6 8 1011.6 - 0.0 - - - - - - -
21/02:00pm 25.9 N 3 6 1011.8 - 0.0 - - - - - - -
21/01:30pm 26.4 CALM 0 3 1012.3 - 0.0 - - - - - - -
21/01:00pm 26.5 WNW 1 5 1012.6 - 0.0 - - - - - - -
21/12:30pm 26.2 CALM 0 0 1013.3 - 0.0 - - - - - - -
21/12:00pm 24.9 CALM 0 0 1013.8 - 0.0 - - - - - - -
21/11:30am 24.7 N 1 3 1014.2 - 0.0 - - - - - - -
21/11:00am 26.1 CALM 0 0 1014.5 - 0.0 - - - - - - -
21/10:30am 25.7 CALM 0 0 1014.8 - 0.0 - - - - - - -
21/10:00am 25.7 CALM 0 0 1014.9 - 0.0 - - - - - - -
21/09:30am 25.8 S 3 6 1015.0 - 0.0 - - - - - - -
21/09:00am 26.1 E 1 4 1014.9 - 8.4 - - - - - - -
21/08:30am 25.6 CALM 0 0 1014.9 - 8.4 - - - - - - -
21/08:00am 23.6 CALM 0 0 1015.0 - 8.4 - - - - - - -
21/07:30am 23.0 CALM 0 0 1014.9 - 8.4 - - - - - - -
21/07:00am 22.5 CALM 0 3 1014.6 - 8.4 - - - - - - -
21/06:30am 22.3 SW 6 8 1014.2 - 8.4 - - - - - - -
21/06:00am 22.1 WSW 3 6 1013.7 - 8.4 - - - - - - -
21/05:30am 22.1 WSW 2 4 1013.6 - 8.4 - - - - - - -
21/05:00am 22.2 WSW 1 5 1013.7 - 8.4 - - - - - - -
21/04:30am 22.3 CALM 0 0 1013.6 - 6.6 - - - - - - -
21/04:00am 22.3 CALM 0 0 1013.5 - 5.8 - - - - - - -
21/03:30am 22.3 W 1 4 1013.6 - 5.6 - - - - - - -
21/03:00am 22.3 SW 4 5 1013.5 - 5.4 - - - - - - -
21/02:30am 22.5 SW 2 4 1013.6 - 4.4 - - - - - - -
21/02:00am 22.8 S 6 10 1013.7 - 2.0 - - - - - - -
21/01:30am 22.4 CALM 0 3 1014.2 - 2.0 - - - - - - -
21/01:00am 22.5 SSW 1 3 1014.6 - 2.0 - - - - - - -
21/12:30am 22.2 CALM 0 0 1015.0 - 1.8 - - - - - - -
21/12:00am 22.1 W 2 5 1015.4 - 1.8 - - - - - - -
 
Date/Time
EST
Temp
°C
Wind Pressure Rain since
9am
mm
Weather Cloud Vis
km
Sea
Height
m
Swell
Dir  Spd
kts
Gust
kts
hPa Trend Height
m
Period
s
Dir
20/11:30pm 22.1 W 3 5 1015.7 - 1.8 - - - - - - -
20/11:00pm 22.2 WNW 1 4 1016.2 - 1.8 - - - - - - -
20/10:30pm 22.4 CALM 0 3 1016.5 - 1.8 - - - - - - -
20/10:00pm 22.7 CALM 0 1 1016.3 - 1.8 - - - - - - -
20/09:30pm 22.7 SSW 1 4 1016.3 - 1.8 - - - - - - -
20/09:00pm 22.9 S 4 6 1016.3 - 1.8 - - - - - - -
20/08:30pm 23.2 SSE 4 6 1016.2 - 1.8 - - - - - - -
20/08:00pm 23.4 SSW 5 8 1015.9 - 1.8 - - - - - - -
20/07:30pm 22.8 ESE 6 14 1015.8 - 1.0 - - - - - - -
20/07:00pm 23.9 E 1 3 1015.3 - 0.2 - - - - - - -
20/06:30pm 24.5 SSE 3 6 1015.0 - 0.2 - - - - - - -
20/06:00pm 25.0 SSE 7 12 1014.6 - 0.2 - - - - - - -
20/05:30pm 25.2 SE 6 11 1014.4 - 0.2 - - - - - - -
20/05:00pm 25.4 SE 8 12 1014.4 - 0.2 - - - - - - -
20/04:30pm 26.0 SE 7 11 1014.4 - 0.2 - - - - - - -

Other Formats:

Comma delimited format used in spreadsheet applications
http://www.bom.gov.au/fwo/IDQ60701/IDQ60701.95292.axf

JavaScript Object Notation format (JSON) in row-major order
http://www.bom.gov.au/fwo/IDQ60701/IDQ60701.95292.json